Time;durP1;ratioP1;P1;durP2;ratioP2;P2;SDS_P1;SDS_P2;PMS_P1;PMS_P2;Temp;Humidity;BMP_temperature;BMP_pressure;BME280_temperature;BME280_humidity;BME280_pressure;Samples;Min_cycle;Max_cycle;Signal;HPM_P1;HPM_P2
2022/01/16 00:00:42;;;;;;;227.95;130.15;;;25.60;2201.60;;;;;;5055172;28;20021;-85
2022/01/16 00:05:55;;;;;;;166.73;103.00;;;25.70;2201.60;;;;;;5056072;28;20120;-87
2022/01/16 00:08:25;;;;;;;168.40;101.35;;;25.60;2201.60;;;;;;5054701;28;20017;-86
2022/01/16 00:10:52;;;;;;;143.32;83.28;;;0.70;2201.60;;;;;;5054827;28;20092;-86
2022/01/16 00:13:18;;;;;;;133.68;83.13;;;0.50;2201.60;;;;;;5054436;28;20017;-87
2022/01/16 00:15:47;;;;;;;141.30;84.47;;;0.70;2201.60;;;;;;5054495;28;20476;-86
2022/01/16 00:18:28;;;;;;;172.00;97.38;;;0.90;2201.60;;;;;;5054296;28;20346;-86
2022/01/16 00:20:54;;;;;;;175.43;100.90;;;0.40;2201.60;;;;;;5054437;28;20021;-86
2022/01/16 00:23:27;;;;;;;212.77;118.00;;;0.70;2201.60;;;;;;5054439;28;20025;-86
2022/01/16 05:20:05;;;;;;;87.55;49.70;;;13.30;2201.60;;;;;;5515358;23;20060;-86
2022/01/16 06:55:21;;;;;;;118.20;69.15;;;38.60;2201.60;;;;;;5040968;28;20089;-83
2022/01/16 07:02:08;;;;;;;91.63;54.65;;;38.50;2201.60;;;;;;4977199;28;20154;-84
2022/01/16 07:05:17;;;;;;;81.47;50.78;;;38.50;2201.60;;;;;;4976240;28;20038;-83
2022/01/16 07:09:04;;;;;;;87.82;52.17;;;38.50;2201.60;;;;;;5037220;28;20017;-82
2022/01/16 07:12:26;;;;;;;94.00;55.45;;;38.60;2201.60;;;;;;5033682;28;20026;-83
2022/01/16 07:15:20;;;;;;;83.45;52.17;;;38.40;2201.60;;;;;;5031811;28;20040;-84
2022/01/16 07:21:57;;;;;;;93.47;55.40;;;38.50;2201.60;;;;;;5024283;28;20102;-85
2022/01/16 07:25:20;;;;;;;203.32;92.75;;;38.50;2201.60;;;;;;5036994;28;20018;-83
2022/01/16 07:28:56;;;;;;;152.23;80.30;;;38.40;2201.60;;;;;;5036278;28;20025;-82
2022/01/16 07:31:56;;;;;;;118.80;68.70;;;38.60;2201.60;;;;;;5036587;28;20151;-84
2022/01/16 08:55:33;;;;;;;88.57;54.75;;;0.20;2201.60;;;;;;4997871;28;20026;-86
2022/01/16 08:58:02;;;;;;;86.65;57.10;;;0.20;2201.60;;;;;;5033588;28;20024;-85
2022/01/16 09:00:37;;;;;;;79.20;46.00;;;0.30;2201.60;;;;;;5033214;28;20060;-86
2022/01/16 09:03:09;;;;;;;70.38;47.83;;;0.10;2201.60;;;;;;5033539;28;20025;-85
2022/01/16 09:05:54;;;;;;;70.57;46.23;;;0.20;2201.60;;;;;;5033175;28;20092;-87
2022/01/16 09:08:20;;;;;;;78.53;46.30;;;0.10;2201.60;;;;;;5033542;28;20072;-84
2022/01/16 09:10:51;;;;;;;75.50;46.25;;;0.30;2201.60;;;;;;5033106;28;20513;-84
2022/01/16 09:13:22;;;;;;;82.03;50.17;;;0.40;2201.60;;;;;;5033270;28;20025;-86
2022/01/16 09:26:09;;;;;;;68.32;43.85;;;0.70;2201.60;;;;;;5034025;28;20041;-84
2022/01/16 09:32:36;;;;;;;78.75;51.92;;;0.90;2201.60;;;;;;5033820;28;20480;-85
2022/01/16 09:35:27;;;;;;;81.05;53.90;;;25.80;2201.60;;;;;;5032661;28;20476;-84
2022/01/16 09:37:54;;;;;;;85.70;54.38;;;25.90;2201.60;;;;;;5030377;28;20493;-85
2022/01/16 09:40:22;;;;;;;74.00;47.88;;;26.00;2201.60;;;;;;5030997;28;20028;-84
2022/01/16 09:42:48;;;;;;;71.10;45.63;;;26.00;2201.60;;;;;;5031829;28;20033;-86
2022/01/16 09:45:17;;;;;;;71.70;41.53;;;26.20;2201.60;;;;;;5031719;28;20060;-84
2022/01/16 09:47:45;;;;;;;58.40;36.83;;;26.20;2201.60;;;;;;5031829;28;20056;-84
2022/01/16 09:50:13;;;;;;;51.33;34.83;;;26.20;2201.60;;;;;;5032092;28;20086;-84
2022/01/16 09:52:41;;;;;;;57.08;37.30;;;26.10;2201.60;;;;;;5032772;28;20021;-85
2022/01/16 10:02:03;;;;;;;82.20;53.75;;;26.50;2201.60;;;;;;5018168;28;20037;-82
2022/01/16 10:04:40;;;;;;;76.15;50.42;;;26.20;2201.60;;;;;;5035293;28;20458;-81
2022/01/16 10:07:09;;;;;;;77.68;48.00;;;51.30;2227.20;;;;;;5036605;28;20021;-81
2022/01/16 10:09:36;;;;;;;68.63;43.55;;;51.50;2227.20;;;;;;5036524;28;20029;-81
2022/01/16 10:12:05;;;;;;;65.75;44.10;;;51.60;2227.20;;;;;;5036805;28;20112;-83
2022/01/16 10:14:37;;;;;;;69.65;45.33;;;51.80;2227.20;;;;;;5036477;28;20029;-78
2022/01/16 10:17:16;;;;;;;87.03;52.92;;;51.90;2227.20;;;;;;5035953;28;20056;-79
2022/01/16 10:19:42;;;;;;;71.32;46.03;;;52.00;2227.20;;;;;;5036382;28;20036;-82
2022/01/16 10:22:10;;;;;;;93.00;61.65;;;76.80;2227.20;;;;;;5035977;28;20021;-83
2022/01/16 10:24:39;;;;;;;76.03;47.00;;;76.90;2227.20;;;;;;5036689;28;20049;-83
2022/01/16 10:27:07;;;;;;;93.65;53.28;;;77.00;2227.20;;;;;;5037729;28;20033;-82
2022/01/16 10:29:43;;;;;;;58.80;37.05;;;77.10;2227.20;;;;;;5035982;28;20035;-86
2022/01/16 10:32:15;;;;;;;49.47;30.55;;;77.10;2227.20;;;;;;5037589;28;20021;-83
2022/01/16 10:34:42;;;;;;;50.37;35.00;;;77.00;2227.20;;;;;;5037546;28;20159;-84
2022/01/16 10:37:30;;;;;;;56.38;34.30;;;77.10;2227.20;;;;;;5037333;28;20025;-82
2022/01/16 10:40:18;;;;;;;53.05;35.28;;;77.40;2227.20;;;;;;5036274;28;20025;-78
2022/01/16 10:42:57;;;;;;;61.88;43.03;;;77.50;2227.20;;;;;;5036000;28;20025;-82
2022/01/16 10:45:36;;;;;;;54.70;37.17;;;77.70;2227.20;;;;;;5037408;28;20032;-85
2022/01/16 10:48:04;;;;;;;54.35;37.60;;;77.70;2227.20;;;;;;5035881;28;20029;-83
2022/01/16 10:50:38;;;;;;;48.92;32.90;;;102.40;2227.20;;;;;;5037037;28;20026;-80
2022/01/16 10:53:08;;;;;;;52.40;33.53;;;102.40;2227.20;;;;;;5037387;28;20068;-84
2022/01/16 10:56:03;;;;;;;68.38;48.38;;;102.50;2227.20;;;;;;5035922;28;20033;-82
2022/01/16 10:58:43;;;;;;;65.78;41.15;;;102.60;2227.20;;;;;;5035941;28;20032;-84
2022/01/16 11:01:14;;;;;;;51.50;33.10;;;102.70;2227.20;;;;;;5035551;28;20137;-80
2022/01/16 11:03:50;;;;;;;56.50;36.70;;;102.80;2227.20;;;;;;5035765;28;20025;-84
2022/01/16 11:06:18;;;;;;;62.17;39.30;;;102.80;2227.20;;;;;;5035677;28;20369;-80
2022/01/16 11:08:56;;;;;;;51.28;35.15;;;102.90;2227.20;;;;;;5035557;28;20052;-81
2022/01/16 11:11:24;;;;;;;50.03;34.38;;;103.00;2227.20;;;;;;5035461;28;20480;-82
2022/01/16 11:13:50;;;;;;;45.80;31.17;;;103.10;2227.20;;;;;;5035922;28;20018;-83
2022/01/16 11:16:17;;;;;;;37.85;25.55;;;103.20;2227.20;;;;;;5035719;28;20021;-83
2022/01/16 11:18:48;;;;;;;48.22;31.50;;;103.20;2227.20;;;;;;5035267;28;20021;-83
2022/01/16 11:21:20;;;;;;;32.42;20.33;;;103.30;2227.20;;;;;;5057701;28;20048;-84
2022/01/16 11:23:59;;;;;;;35.20;24.80;;;103.30;2227.20;;;;;;5044257;28;20087;-84
2022/01/16 11:26:27;;;;;;;32.97;23.60;;;128.00;2252.80;;;;;;5039462;28;20029;-84
2022/01/16 11:28:54;;;;;;;43.75;32.00;;;128.20;2252.80;;;;;;5035929;28;20029;-83
2022/01/16 11:31:21;;;;;;;43.97;30.23;;;128.30;2252.80;;;;;;5035214;28;20026;-84
2022/01/16 11:33:47;;;;;;;43.20;31.42;;;128.70;2252.80;;;;;;5035527;28;20021;-83
2022/01/16 11:36:23;;;;;;;45.38;31.65;;;128.80;2252.80;;;;;;5035317;28;20060;-83
2022/01/16 11:38:58;;;;;;;36.20;25.08;;;153.60;2252.80;;;;;;5034946;28;20017;-83
2022/01/16 11:41:32;;;;;;;31.08;22.30;;;128.90;2252.80;;;;;;5035165;28;20086;-80
2022/01/16 11:44:00;;;;;;;46.55;34.17;;;153.80;2252.80;;;;;;5035185;28;20025;-81
2022/01/16 11:46:29;;;;;;;37.08;28.20;;;154.00;2252.80;;;;;;5034683;28;20028;-80
2022/01/16 11:49:01;;;;;;;38.38;28.13;;;154.20;2252.80;;;;;;5034864;28;20111;-82
2022/01/16 11:51:37;;;;;;;43.13;31.63;;;154.40;2252.80;;;;;;5034833;28;20039;-80
2022/01/16 11:54:25;;;;;;;37.45;27.70;;;154.50;2252.80;;;;;;5035767;28;20450;-81
2022/01/16 11:57:03;;;;;;;33.40;23.88;;;179.30;2252.80;;;;;;5035017;28;20076;-80
2022/01/16 11:59:35;;;;;;;34.80;25.00;;;179.50;2252.80;;;;;;5034597;28;20474;-83
2022/01/16 12:02:08;;;;;;;39.03;28.55;;;179.70;2252.80;;;;;;5034803;28;20052;-81
2022/01/16 12:04:34;;;;;;;47.42;35.22;;;179.90;2252.80;;;;;;5035150;28;20105;-81
2022/01/16 12:07:12;;;;;;;40.72;29.40;;;180.10;2252.80;;;;;;5034703;28;20030;-81
2022/01/16 12:12:22;;;;;;;49.78;36.47;;;204.90;2252.80;;;;;;5035501;28;20580;-80
2022/01/16 12:14:53;;;;;;;37.45;26.65;;;205.10;2252.80;;;;;;5034702;28;20137;-83
2022/01/16 12:17:51;;;;;;;44.72;31.50;;;205.10;2252.80;;;;;;5034389;28;20472;-81
2022/01/16 12:20:25;;;;;;;42.42;30.23;;;205.30;2252.80;;;;;;5035190;28;20013;-82
2022/01/16 12:23:04;;;;;;;35.53;26.55;;;205.40;2252.80;;;;;;5033662;28;20044;-82
2022/01/16 12:25:50;;;;;;;55.00;36.03;;;205.20;2252.80;;;;;;5013718;28;20116;-79
2022/01/16 12:28:18;;;;;;;63.03;41.72;;;205.40;2252.80;;;;;;4998328;28;20065;-81
2022/01/16 12:31:03;;;;;;;50.58;34.80;;;205.60;2252.80;;;;;;5013320;28;20445;-83
2022/01/16 12:33:35;;;;;;;48.22;35.53;;;230.40;2252.80;;;;;;5014466;28;20018;-82
2022/01/16 12:36:11;;;;;;;44.05;32.00;;;205.70;2252.80;;;;;;5015289;28;20101;-83
2022/01/16 12:38:53;;;;;;;41.10;30.13;;;205.70;2252.80;;;;;;5014147;28;20488;-79
2022/01/16 12:42:08;;;;;;;36.00;26.10;;;230.50;2252.80;;;;;;5014006;28;20049;-85
2022/01/16 12:54:11;;;;;;;51.70;36.92;;;205.70;2252.80;;;;;;5015358;28;20013;-84
2022/01/16 12:56:54;;;;;;;54.88;38.83;;;230.40;2252.80;;;;;;5014053;28;20022;-80
2022/01/16 13:03:19;;;;;;;43.25;29.70;;;230.40;2252.80;;;;;;5014828;28;20539;-85
2022/01/16 13:06:23;;;;;;;44.33;30.07;;;230.40;2252.80;;;;;;4999995;28;20048;-85
2022/01/16 13:12:16;;;;;;;102.60;66.13;;;230.50;2252.80;;;;;;5013748;28;20025;-84
2022/01/16 13:17:48;;;;;;;69.38;49.38;;;230.50;2252.80;;;;;;5009747;28;20037;-84
2022/01/16 13:20:52;;;;;;;74.32;52.00;;;230.50;2252.80;;;;;;5013408;28;20496;-84
2022/01/16 13:23:36;;;;;;;44.78;31.67;;;230.50;2252.80;;;;;;5012254;28;20099;-84
2022/01/16 13:26:27;;;;;;;42.55;31.77;;;230.40;2252.80;;;;;;5013500;28;20018;-84
2022/01/16 13:32:01;;;;;;;66.03;48.35;;;205.70;2252.80;;;;;;5009967;28;20021;-84
2022/01/16 13:34:42;;;;;;;32.50;24.38;;;205.60;2252.80;;;;;;5013201;28;20466;-83
2022/01/16 13:37:49;;;;;;;36.50;24.80;;;205.20;2252.80;;;;;;5012961;28;20072;-83
2022/01/16 13:43:36;;;;;;;35.83;25.58;;;205.00;2252.80;;;;;;5014126;28;20028;-81
2022/01/16 13:46:46;;;;;;;22.23;18.10;;;204.80;2252.80;;;;;;5012716;28;20018;-84
2022/01/16 13:53:35;;;;;;;35.67;26.45;;;179.80;2252.80;;;;;;4953252;28;20035;-82
2022/01/16 13:56:41;;;;;;;39.15;30.00;;;179.90;2252.80;;;;;;4861535;29;20031;-82
2022/01/16 13:59:13;;;;;;;34.97;28.00;;;179.90;2252.80;;;;;;4862343;29;20028;-81
2022/01/16 14:02:26;;;;;;;;;;;;;;;;;;;;;
2022/01/16 14:05:07;;;;;;;37.40;24.38;;;205.00;2252.80;;;;;;4973301;28;20275;-82
2022/01/16 14:11:11;;;;;;;54.35;34.78;;;205.00;2252.80;;;;;;5014272;28;20072;-81
2022/01/16 14:13:58;;;;;;;55.30;36.47;;;205.10;2252.80;;;;;;5012588;28;20025;-81
2022/01/16 14:16:37;;;;;;;44.13;31.17;;;205.20;2252.80;;;;;;5018059;28;20018;-81
2022/01/16 14:24:11;;;;;;;55.47;37.65;;;205.10;2252.80;;;;;;5023884;28;20053;-81
2022/01/16 14:26:51;;;;;;;45.42;32.53;;;205.00;2252.80;;;;;;5021752;28;20028;-80
2022/01/16 14:29:18;;;;;;;45.63;34.33;;;204.90;2252.80;;;;;;5021812;28;20081;-81
2022/01/16 14:31:45;;;;;;;37.72;28.00;;;204.80;2252.80;;;;;;5019115;28;20088;-80
2022/01/16 14:34:14;;;;;;;38.25;27.38;;;179.60;2252.80;;;;;;5021067;28;20025;-80
2022/01/16 14:36:41;;;;;;;36.97;26.63;;;179.80;2252.80;;;;;;5020386;28;20017;-82
2022/01/16 14:39:08;;;;;;;36.70;26.20;;;179.60;2252.80;;;;;;5022338;28;20022;-80
2022/01/16 14:41:37;;;;;;;44.08;31.50;;;179.40;2252.80;;;;;;5021440;28;20018;-82
2022/01/16 14:44:04;;;;;;;41.80;31.63;;;179.30;2252.80;;;;;;5020017;28;20018;-80
2022/01/16 14:46:30;;;;;;;49.00;34.88;;;179.20;2252.80;;;;;;5034532;28;20017;-79
2022/01/16 14:48:58;;;;;;;51.42;38.22;;;179.50;2252.80;;;;;;5056569;28;20017;-81
2022/01/16 14:51:24;;;;;;;49.95;35.72;;;154.40;2252.80;;;;;;5059681;28;20040;-76
2022/01/16 14:53:50;;;;;;;44.45;33.35;;;154.40;2252.80;;;;;;5061097;28;20014;-78
2022/01/16 14:56:16;;;;;;;53.95;39.47;;;154.30;2252.80;;;;;;5060461;28;20022;-81
2022/01/16 14:58:43;;;;;;;52.33;37.33;;;153.80;2252.80;;;;;;5059522;28;20013;-80
2022/01/16 15:01:10;;;;;;;56.85;40.22;;;154.10;2252.80;;;;;;5053729;28;20037;-79
2022/01/16 15:03:37;;;;;;;68.05;46.70;;;154.00;2252.80;;;;;;5036158;28;20021;-79
2022/01/16 15:06:07;;;;;;;71.20;48.80;;;153.90;2252.80;;;;;;5038147;28;20044;-81
2022/01/16 15:08:36;;;;;;;82.72;53.75;;;153.80;2252.80;;;;;;5036086;28;20083;-80
2022/01/16 15:11:03;;;;;;;95.63;60.05;;;128.90;2252.80;;;;;;5036522;28;20071;-78
2022/01/16 15:13:28;;;;;;;87.80;56.20;;;128.80;2252.80;;;;;;5035658;28;20112;-80
2022/01/16 15:15:54;;;;;;;79.60;54.38;;;128.80;2252.80;;;;;;5036226;28;20059;-80
2022/01/16 15:18:21;;;;;;;79.53;53.05;;;128.60;2252.80;;;;;;5036108;28;20067;-80
2022/01/16 15:20:54;;;;;;;103.35;54.78;;;128.50;2252.80;;;;;;5035544;28;20021;-78
2022/01/16 15:23:20;;;;;;;84.20;49.70;;;128.50;2252.80;;;;;;5024552;28;20079;-76
2022/01/16 15:25:47;;;;;;;610.38;179.30;;;128.40;2252.80;;;;;;5027317;28;20021;-77
2022/01/16 15:28:14;;;;;;;227.77;96.43;;;128.40;2252.80;;;;;;5023431;28;20026;-81
2022/01/16 15:30:41;;;;;;;173.63;83.32;;;103.30;2227.20;;;;;;5022196;28;20067;-77
2022/01/16 15:33:06;;;;;;;162.85;103.25;;;128.20;2252.80;;;;;;5024434;28;20358;-80
2022/01/16 15:35:37;;;;;;;182.07;111.28;;;128.10;2252.80;;;;;;5023869;28;20026;-78
2022/01/16 15:38:07;;;;;;;205.80;127.47;;;128.10;2252.80;;;;;;5023976;28;20076;-81
2022/01/16 15:40:37;;;;;;;207.70;133.18;;;128.00;2252.80;;;;;;5024399;28;20025;-80
2022/01/16 15:43:08;;;;;;;305.83;173.02;;;103.30;2227.20;;;;;;5025648;28;20125;-77
2022/01/16 15:45:34;;;;;;;363.35;189.98;;;103.20;2227.20;;;;;;5036603;28;20033;-79
2022/01/16 15:48:01;;;;;;;374.20;188.00;;;103.20;2227.20;;;;;;5034537;28;20088;-78
2022/01/16 15:50:27;;;;;;;343.55;176.73;;;103.20;2227.20;;;;;;5022728;28;20022;-79
2022/01/16 15:52:54;;;;;;;382.95;208.20;;;103.00;2227.20;;;;;;5014874;28;20017;-79
2022/01/16 15:55:22;;;;;;;273.98;165.35;;;102.80;2227.20;;;;;;5014709;28;20120;-80
2022/01/16 15:57:52;;;;;;;317.55;164.30;;;102.80;2227.20;;;;;;5014799;28;20523;-78
2022/01/16 16:00:23;;;;;;;315.50;158.40;;;102.80;2227.20;;;;;;5014922;28;20022;-80
2022/01/16 16:02:51;;;;;;;342.90;179.93;;;102.80;2227.20;;;;;;5014116;28;20072;-79
2022/01/16 16:05:21;;;;;;;315.58;172.38;;;102.70;2227.20;;;;;;5024835;28;20028;-79
2022/01/16 16:07:47;;;;;;;489.77;233.20;;;102.70;2227.20;;;;;;5034244;28;20036;-80
2022/01/16 16:10:15;;;;;;;321.15;174.57;;;102.70;2227.20;;;;;;5035547;28;20369;-81
2022/01/16 16:12:43;;;;;;;265.02;155.10;;;102.50;2227.20;;;;;;5035675;28;20071;-80
2022/01/16 16:15:09;;;;;;;225.95;136.23;;;102.60;2227.20;;;;;;5034989;28;20044;-78
2022/01/16 16:17:35;;;;;;;217.82;137.93;;;102.60;2227.20;;;;;;5019826;28;20453;-79
2022/01/16 16:20:01;;;;;;;221.88;140.32;;;102.50;2227.20;;;;;;5019698;28;20029;-81
2022/01/16 16:22:28;;;;;;;267.00;171.85;;;102.50;2227.20;;;;;;5014189;28;20032;-80
2022/01/16 16:24:54;;;;;;;393.80;229.05;;;77.70;2227.20;;;;;;5014227;28;20026;-82
2022/01/16 16:27:23;;;;;;;431.85;255.57;;;77.60;2227.20;;;;;;5014239;28;20026;-80
2022/01/16 16:29:52;;;;;;;406.33;232.05;;;77.60;2227.20;;;;;;5014165;28;20022;-77
2022/01/16 16:32:19;;;;;;;342.90;207.50;;;77.70;2227.20;;;;;;5016542;28;20077;-81
2022/01/16 16:34:45;;;;;;;310.33;179.98;;;77.60;2227.20;;;;;;5025439;28;20025;-74
2022/01/16 16:37:14;;;;;;;243.55;144.50;;;77.70;2227.20;;;;;;5031930;28;20492;-75
2022/01/16 16:39:40;;;;;;;218.38;131.43;;;77.60;2227.20;;;;;;5026776;28;20037;-74
2022/01/16 16:42:10;;;;;;;302.23;178.35;;;77.60;2227.20;;;;;;5033208;28;20028;-83
2022/01/16 16:44:37;;;;;;;297.77;177.65;;;77.60;2227.20;;;;;;5033719;28;20224;-83
2022/01/16 16:47:05;;;;;;;290.60;181.40;;;77.50;2227.20;;;;;;5035325;28;20033;-82
2022/01/16 16:49:33;;;;;;;265.55;166.93;;;77.30;2227.20;;;;;;5033452;28;20026;-82
2022/01/16 16:52:00;;;;;;;506.45;276.02;;;77.20;2227.20;;;;;;5034067;28;20028;-82
2022/01/16 16:54:26;;;;;;;329.88;180.82;;;77.30;2227.20;;;;;;5034155;28;20465;-82
2022/01/16 16:56:52;;;;;;;370.65;203.13;;;77.40;2227.20;;;;;;5032263;28;20025;-84
2022/01/16 16:59:19;;;;;;;336.83;179.63;;;77.40;2227.20;;;;;;5013925;28;20026;-81
2022/01/16 17:01:45;;;;;;;299.63;171.13;;;77.50;2227.20;;;;;;5023490;28;20125;-83
2022/01/16 17:04:11;;;;;;;287.23;166.68;;;77.50;2227.20;;;;;;5033486;28;20054;-84
2022/01/16 17:06:36;;;;;;;303.55;175.57;;;77.40;2227.20;;;;;;5033571;28;20025;-81
2022/01/16 17:09:06;;;;;;;333.50;196.98;;;77.20;2227.20;;;;;;5033871;28;20500;-82
2022/01/16 17:11:33;;;;;;;475.02;278.70;;;77.40;2227.20;;;;;;5033417;28;20024;-82
2022/01/16 17:13:59;;;;;;;606.28;368.02;;;77.30;2227.20;;;;;;5033022;28;20022;-84
2022/01/16 17:16:25;;;;;;;465.42;275.35;;;77.10;2227.20;;;;;;5034399;28;20075;-82
2022/01/16 17:18:54;;;;;;;453.38;262.60;;;77.20;2227.20;;;;;;5033386;28;20373;-83
2022/01/16 17:21:21;;;;;;;491.55;273.63;;;77.30;2227.20;;;;;;5033193;28;20029;-85
2022/01/16 17:23:47;;;;;;;576.25;321.10;;;77.30;2227.20;;;;;;5030335;28;20018;-84
2022/01/16 17:26:13;;;;;;;483.13;276.63;;;77.40;2227.20;;;;;;5033077;28;20022;-84
2022/01/16 17:28:39;;;;;;;337.75;199.15;;;77.30;2227.20;;;;;;5033012;28;20029;-81
2022/01/16 17:31:05;;;;;;;265.13;161.50;;;77.10;2227.20;;;;;;5033260;28;20102;-84
2022/01/16 17:33:31;;;;;;;210.02;138.68;;;77.20;2227.20;;;;;;5032667;28;20028;-84
2022/01/16 17:35:57;;;;;;;217.50;137.05;;;77.10;2227.20;;;;;;5033356;28;20057;-83
2022/01/16 17:38:24;;;;;;;206.25;130.73;;;76.90;2227.20;;;;;;5034361;28;20033;-83
2022/01/16 17:40:50;;;;;;;202.95;129.70;;;76.90;2227.20;;;;;;5033168;28;20032;-84
2022/01/16 17:43:15;;;;;;;217.23;132.98;;;76.80;2227.20;;;;;;5032890;28;20446;-83
2022/01/16 17:45:43;;;;;;;248.13;152.40;;;76.90;2227.20;;;;;;5032648;28;20118;-83
2022/01/16 17:48:09;;;;;;;269.67;164.57;;;76.80;2227.20;;;;;;5032882;28;20029;-84
2022/01/16 17:50:35;;;;;;;272.33;156.95;;;77.30;2227.20;;;;;;5032643;28;20116;-84
2022/01/16 17:53:01;;;;;;;223.35;144.43;;;76.90;2227.20;;;;;;5032579;28;20056;-83
2022/01/16 17:55:27;;;;;;;206.93;133.50;;;52.00;2227.20;;;;;;5032623;28;20025;-84
2022/01/16 17:57:53;;;;;;;304.38;186.65;;;52.10;2227.20;;;;;;5029623;28;20029;-85
2022/01/16 18:00:20;;;;;;;317.92;198.98;;;52.10;2227.20;;;;;;5029537;28;20030;-79
2022/01/16 18:02:46;;;;;;;322.80;202.27;;;52.00;2227.20;;;;;;5022630;28;20116;-82
2022/01/16 18:05:13;;;;;;;379.33;243.18;;;52.10;2227.20;;;;;;5013005;28;20030;-84
2022/01/16 18:07:40;;;;;;;413.70;263.02;;;76.80;2227.20;;;;;;5014045;28;20025;-82
2022/01/16 18:10:10;;;;;;;404.33;262.30;;;76.80;2227.20;;;;;;5024101;28;20025;-84
2022/01/16 18:12:36;;;;;;;453.70;284.83;;;52.00;2227.20;;;;;;5032481;28;20373;-83
2022/01/16 18:15:02;;;;;;;479.67;299.55;;;52.10;2227.20;;;;;;5032250;28;20032;-85
2022/01/16 18:17:28;;;;;;;445.55;285.33;;;76.80;2227.20;;;;;;5012910;28;20515;-84
2022/01/16 18:19:54;;;;;;;462.10;303.08;;;76.80;2227.20;;;;;;5012801;28;20124;-83
2022/01/16 18:22:20;;;;;;;472.90;307.90;;;52.10;2227.20;;;;;;5012625;28;20018;-85
2022/01/16 18:25:13;;;;;;;461.30;298.83;;;52.00;2227.20;;;;;;5013731;28;20030;-83
2022/01/16 18:27:40;;;;;;;446.10;296.48;;;52.10;2227.20;;;;;;5032422;28;20045;-83
2022/01/16 18:30:06;;;;;;;483.55;313.90;;;52.00;2227.20;;;;;;5037586;28;20020;-83
2022/01/16 18:32:32;;;;;;;436.75;274.38;;;52.00;2227.20;;;;;;5035962;28;20564;-84
2022/01/16 18:35:03;;;;;;;434.23;281.45;;;51.90;2227.20;;;;;;5035573;28;20108;-84
2022/01/16 18:37:30;;;;;;;396.20;253.35;;;51.80;2227.20;;;;;;5027322;28;20026;-84
2022/01/16 18:39:56;;;;;;;384.75;251.40;;;51.80;2227.20;;;;;;5022697;28;20588;-83
2022/01/16 18:42:21;;;;;;;400.67;252.60;;;51.60;2227.20;;;;;;5016086;28;20113;-84
2022/01/16 18:44:49;;;;;;;387.98;253.88;;;51.70;2227.20;;;;;;5016251;28;20040;-83
2022/01/16 18:47:15;;;;;;;402.67;260.27;;;51.80;2227.20;;;;;;5016633;28;20036;-84
2022/01/16 18:49:41;;;;;;;430.25;270.80;;;51.80;2227.20;;;;;;5016231;28;20018;-82
2022/01/16 18:52:07;;;;;;;457.92;291.67;;;51.80;2227.20;;;;;;5029240;28;20018;-86
2022/01/16 18:54:33;;;;;;;483.05;300.45;;;51.80;2227.20;;;;;;5035544;28;20048;-84
2022/01/16 18:56:58;;;;;;;486.13;317.33;;;51.80;2227.20;;;;;;5036339;28;20377;-86
2022/01/16 18:59:24;;;;;;;445.95;283.65;;;51.80;2227.20;;;;;;5037773;28;20029;-85
2022/01/16 19:01:51;;;;;;;435.13;282.35;;;51.80;2227.20;;;;;;5035976;28;20084;-86
2022/01/16 19:04:19;;;;;;;446.48;294.70;;;51.90;2227.20;;;;;;5035884;28;20091;-86
2022/01/16 19:06:46;;;;;;;388.30;248.18;;;51.90;2227.20;;;;;;5036418;28;20128;-85
2022/01/16 19:09:12;;;;;;;345.75;231.93;;;51.80;2227.20;;;;;;5035535;28;20358;-85
2022/01/16 19:11:38;;;;;;;373.10;245.13;;;51.70;2227.20;;;;;;5034882;28;20025;-87
2022/01/16 19:14:04;;;;;;;414.70;267.40;;;51.90;2227.20;;;;;;5036045;28;20116;-84
2022/01/16 19:16:31;;;;;;;429.77;279.25;;;51.80;2227.20;;;;;;5032558;28;20027;-84
2022/01/16 19:18:57;;;;;;;443.85;285.00;;;51.80;2227.20;;;;;;5036501;28;20075;-86
2022/01/16 19:21:22;;;;;;;552.92;352.00;;;51.70;2227.20;;;;;;5036229;28;20041;-87
2022/01/16 19:23:49;;;;;;;455.17;284.23;;;51.40;2227.20;;;;;;5035741;28;20022;-85
2022/01/16 19:26:14;;;;;;;450.55;289.23;;;51.40;2227.20;;;;;;5035810;28;20075;-86
2022/01/16 19:28:40;;;;;;;452.73;286.35;;;51.30;2227.20;;;;;;5035558;28;20029;-86
2022/01/16 19:31:07;;;;;;;448.80;294.40;;;51.50;2227.20;;;;;;5035412;28;20029;-85
2022/01/16 19:33:33;;;;;;;419.20;270.08;;;51.60;2227.20;;;;;;5020845;28;20029;-86
2022/01/16 19:35:59;;;;;;;405.15;256.70;;;51.60;2227.20;;;;;;5028328;28;20029;-85
2022/01/16 19:38:25;;;;;;;464.50;304.13;;;51.60;2227.20;;;;;;5035071;28;20026;-87
2022/01/16 19:40:51;;;;;;;471.42;312.02;;;51.60;2227.20;;;;;;5035143;28;20025;-86
2022/01/16 19:43:21;;;;;;;451.98;292.55;;;51.70;2227.20;;;;;;5033986;28;20075;-87
2022/01/16 19:45:50;;;;;;;483.02;313.20;;;51.50;2227.20;;;;;;5031026;28;20120;-84
2022/01/16 19:48:16;;;;;;;460.17;289.65;;;51.30;2227.20;;;;;;5034577;28;20025;-85
2022/01/16 19:50:42;;;;;;;395.63;245.73;;;51.30;2227.20;;;;;;5034073;28;20028;-83
2022/01/16 19:53:09;;;;;;;373.02;239.93;;;51.70;2227.20;;;;;;5032663;28;20033;-79
2022/01/16 19:55:35;;;;;;;445.90;291.75;;;51.20;2227.20;;;;;;5033900;28;20037;-81
2022/01/16 19:58:01;;;;;;;459.08;302.58;;;51.40;2227.20;;;;;;5033835;28;20441;-85
2022/01/16 20:00:29;;;;;;;451.83;292.55;;;51.30;2227.20;;;;;;5034227;28;20032;-83
2022/01/16 20:02:55;;;;;;;414.30;274.02;;;51.30;2227.20;;;;;;5033051;28;20032;-84
2022/01/16 20:05:22;;;;;;;410.30;262.77;;;51.40;2227.20;;;;;;5033858;28;20037;-84
2022/01/16 20:07:48;;;;;;;436.08;278.27;;;51.30;2227.20;;;;;;5033693;28;20029;-85
2022/01/16 20:10:14;;;;;;;397.35;255.23;;;51.40;2227.20;;;;;;5034241;28;20350;-87
2022/01/16 20:12:42;;;;;;;378.80;248.70;;;51.40;2227.20;;;;;;5035332;28;20073;-85
2022/01/16 20:15:15;;;;;;;370.63;238.68;;;51.50;2227.20;;;;;;5033957;28;20029;-86
2022/01/16 20:17:41;;;;;;;398.10;254.98;;;51.50;2227.20;;;;;;5033442;28;20465;-88
2022/01/16 20:20:07;;;;;;;398.05;259.50;;;51.40;2227.20;;;;;;5034019;28;20032;-88
2022/01/16 20:22:34;;;;;;;394.25;255.50;;;51.50;2227.20;;;;;;5033852;28;20029;-87
2022/01/16 20:25:00;;;;;;;390.23;246.98;;;51.50;2227.20;;;;;;5033012;28;20079;-80
2022/01/16 20:27:26;;;;;;;372.48;244.45;;;51.40;2227.20;;;;;;5033605;28;20389;-85
2022/01/16 20:29:52;;;;;;;401.02;252.05;;;51.40;2227.20;;;;;;5033620;28;20116;-86
2022/01/16 20:32:18;;;;;;;337.85;216.25;;;26.50;2201.60;;;;;;5034120;28;20025;-83
2022/01/16 20:34:43;;;;;;;305.50;198.25;;;26.50;2201.60;;;;;;5033589;28;20025;-83
2022/01/16 20:37:09;;;;;;;276.67;188.52;;;51.30;2227.20;;;;;;5033476;28;20026;-84
2022/01/16 20:39:35;;;;;;;267.48;181.50;;;51.20;2227.20;;;;;;5033822;28;20026;-86
2022/01/16 20:42:01;;;;;;;292.75;191.02;;;51.20;2227.20;;;;;;5033671;28;20120;-85
2022/01/16 20:44:27;;;;;;;348.20;226.70;;;51.20;2227.20;;;;;;5033059;28;20043;-85
2022/01/16 20:46:54;;;;;;;430.08;277.33;;;51.20;2227.20;;;;;;5033459;28;20036;-85
2022/01/16 20:49:20;;;;;;;456.75;297.77;;;26.30;2201.60;;;;;;5032798;28;20108;-83
2022/01/16 20:51:46;;;;;;;494.33;324.20;;;26.50;2201.60;;;;;;5033299;28;20017;-84
2022/01/16 20:54:12;;;;;;;544.70;362.45;;;26.40;2201.60;;;;;;5033260;28;20025;-86
2022/01/16 20:56:41;;;;;;;513.72;341.80;;;51.20;2227.20;;;;;;5033247;28;20131;-85
2022/01/16 20:59:09;;;;;;;470.08;312.75;;;51.20;2227.20;;;;;;5033188;28;20029;-85
2022/01/16 21:01:38;;;;;;;468.15;311.25;;;26.00;2201.60;;;;;;5033044;28;20057;-83
2022/01/16 21:04:05;;;;;;;446.27;297.83;;;26.10;2201.60;;;;;;5033550;28;20025;-84
2022/01/16 21:06:31;;;;;;;436.92;293.58;;;26.10;2201.60;;;;;;5033154;28;20037;-85
2022/01/16 21:08:57;;;;;;;447.85;289.38;;;26.20;2201.60;;;;;;5032767;28;20164;-85
2022/01/16 21:11:25;;;;;;;294.17;188.38;;;26.20;2201.60;;;;;;5033183;28;20021;-83
2022/01/16 21:13:52;;;;;;;226.63;141.15;;;26.30;2201.60;;;;;;5032700;28;20373;-84
2022/01/16 21:16:18;;;;;;;232.82;146.07;;;26.20;2201.60;;;;;;5033898;28;20033;-83
2022/01/16 21:18:45;;;;;;;251.25;148.68;;;26.40;2201.60;;;;;;5032956;28;20446;-84